Time;durP1;ratioP1;P1;durP2;ratioP2;P2;SDS_P1;SDS_P2;PMS_P1;PMS_P2;Temp;Humidity;BMP_temperature;BMP_pressure;BME280_temperature;BME280_humidity;BME280_pressure;Samples;Min_cycle;Max_cycle;Signal;HPM_P1;HPM_P2
2023/05/14 00:01:08;;;;;;;11.20;5.95;;;;;;;;;;5054382;28;20021;-73
2023/05/14 00:03:35;;;;;;;10.95;5.55;;;12.70;99.90;;;;;;5054094;28;20438;-74
2023/05/14 00:06:01;;;;;;;11.20;6.28;;;12.70;99.90;;;;;;5054304;28;20016;-74
2023/05/14 00:08:27;;;;;;;12.45;6.43;;;12.60;99.90;;;;;;5035970;28;20476;-74
2023/05/14 00:10:53;;;;;;;13.63;6.25;;;12.60;99.90;;;;;;5036026;28;20024;-74
2023/05/14 00:13:19;;;;;;;12.25;5.63;;;12.60;99.90;;;;;;5036120;28;20022;-74
2023/05/14 00:15:44;;;;;;;9.68;6.07;;;12.60;99.90;;;;;;5036182;28;20067;-74
2023/05/14 00:18:11;;;;;;;12.27;5.93;;;13.60;99.90;;;;;;5054328;28;20021;-74
2023/05/14 00:20:36;;;;;;;14.32;6.03;;;12.50;99.90;;;;;;5036170;28;20024;-74
2023/05/14 00:23:02;;;;;;;9.82;5.50;;;12.50;99.90;;;;;;5036005;28;20060;-74
2023/05/14 00:25:28;;;;;;;11.52;5.57;;;13.50;99.90;;;;;;5053908;28;20033;-74
2023/05/14 00:27:53;;;;;;;13.88;5.30;;;12.40;99.90;;;;;;5035837;28;20503;-74
2023/05/14 00:30:19;;;;;;;10.70;5.97;;;13.80;99.90;;;;;;5053811;28;20025;-74
2023/05/14 00:32:44;;;;;;;12.07;6.22;;;12.40;99.90;;;;;;5053781;28;20032;-74
2023/05/14 00:35:10;;;;;;;12.35;5.03;;;12.40;99.90;;;;;;5053585;28;20487;-74
2023/05/14 00:37:36;;;;;;;11.25;5.53;;;12.30;99.90;;;;;;5053367;28;20032;-74
2023/05/14 00:40:02;;;;;;;12.73;6.55;;;12.60;99.90;;;;;;5053579;28;20494;-74
2023/05/14 00:42:28;;;;;;;12.00;5.68;;;12.30;99.90;;;;;;5053949;28;20024;-74
2023/05/14 00:44:53;;;;;;;11.82;5.60;;;12.20;99.90;;;;;;5053398;28;20029;-74
2023/05/14 00:47:19;;;;;;;12.30;6.13;;;;;;;;;;5053600;28;20104;-74
2023/05/14 00:49:45;;;;;;;12.25;6.30;;;12.20;99.90;;;;;;5053441;28;20052;-74
2023/05/14 00:52:11;;;;;;;10.77;5.65;;;12.20;99.90;;;;;;5035711;28;20059;-73
2023/05/14 00:54:36;;;;;;;11.23;5.90;;;12.20;99.90;;;;;;5053349;28;20025;-74
2023/05/14 00:57:03;;;;;;;14.10;5.88;;;12.10;99.90;;;;;;5035616;28;20388;-74
2023/05/14 00:59:29;;;;;;;13.85;6.53;;;12.10;99.90;;;;;;5035415;28;20013;-74
2023/05/14 01:01:55;;;;;;;12.68;6.18;;;12.00;99.90;;;;;;5035446;28;20032;-74
2023/05/14 01:04:20;;;;;;;9.80;5.53;;;12.00;99.90;;;;;;5034722;28;20041;-75
2023/05/14 01:06:58;;;;;;;11.02;5.82;;;11.90;99.90;;;;;;5053506;28;20032;-75
2023/05/14 01:09:27;;;;;;;15.50;5.93;;;11.90;99.90;;;;;;5053385;28;20400;-75
2023/05/14 01:12:18;;;;;;;15.40;5.85;;;11.90;99.90;;;;;;5053183;28;20059;-76
2023/05/14 01:14:55;;;;;;;13.50;5.93;;;11.80;99.90;;;;;;5035413;28;20110;-75
2023/05/14 01:17:23;;;;;;;12.88;6.28;;;11.70;99.90;;;;;;5053816;28;20037;-76
2023/05/14 01:19:50;;;;;;;15.25;6.28;;;11.70;99.90;;;;;;5053422;28;20407;-76
2023/05/14 01:22:16;;;;;;;12.27;6.45;;;11.70;99.90;;;;;;5035220;28;20017;-76
2023/05/14 01:24:42;;;;;;;12.10;6.50;;;11.60;99.90;;;;;;5035278;28;20531;-75
2023/05/14 01:27:35;;;;;;;14.45;6.00;;;11.60;99.90;;;;;;5053156;28;20036;-76
2023/05/14 01:30:17;;;;;;;9.70;5.88;;;11.50;99.90;;;;;;5053142;28;20036;-76
2023/05/14 01:32:46;;;;;;;14.85;6.88;;;11.50;99.90;;;;;;5035253;28;20503;-76
2023/05/14 01:35:11;;;;;;;16.45;6.53;;;11.40;99.90;;;;;;5035120;28;20031;-76
2023/05/14 01:37:39;;;;;;;14.38;6.78;;;11.40;99.90;;;;;;5052989;28;20013;-75
2023/05/14 01:40:06;;;;;;;14.65;5.82;;;11.20;99.90;;;;;;5052934;28;20017;-75
2023/05/14 01:42:31;;;;;;;11.50;6.90;;;11.30;99.90;;;;;;5035088;28;20049;-76
2023/05/14 01:44:58;;;;;;;13.52;5.90;;;11.30;99.90;;;;;;5052702;28;20075;-76
2023/05/14 01:47:23;;;;;;;12.90;6.90;;;11.30;99.90;;;;;;5034869;28;20025;-75
2023/05/14 01:49:49;;;;;;;12.43;6.80;;;11.30;99.90;;;;;;5053049;28;20432;-75
2023/05/14 01:52:14;;;;;;;12.77;6.22;;;11.20;99.90;;;;;;5052746;28;20128;-75
2023/05/14 01:54:40;;;;;;;15.00;7.47;;;11.20;99.90;;;;;;5052773;28;20032;-78
2023/05/14 01:57:05;;;;;;;14.82;6.90;;;11.20;99.90;;;;;;5058417;28;20021;-77
2023/05/14 01:59:31;;;;;;;16.48;6.85;;;11.20;99.90;;;;;;5058590;28;20029;-77
2023/05/14 02:01:57;;;;;;;13.27;7.18;;;11.20;99.90;;;;;;5040838;28;20025;-77
2023/05/14 02:04:22;;;;;;;14.13;7.38;;;11.20;99.90;;;;;;5058277;28;20104;-77
2023/05/14 02:06:48;;;;;;;13.68;7.32;;;11.20;99.90;;;;;;5059137;28;20056;-77
2023/05/14 02:09:13;;;;;;;15.48;7.40;;;11.20;99.90;;;;;;5058083;28;20100;-77
2023/05/14 02:11:39;;;;;;;14.55;6.90;;;11.20;99.90;;;;;;5058021;28;20032;-77
2023/05/14 02:14:04;;;;;;;13.70;7.13;;;11.10;99.90;;;;;;5040147;28;20037;-77
2023/05/14 02:16:30;;;;;;;14.60;6.38;;;12.00;99.90;;;;;;5058244;28;20100;-77
2023/05/14 02:18:56;;;;;;;16.73;7.70;;;11.90;99.90;;;;;;5058094;28;20017;-77
2023/05/14 02:21:21;;;;;;;12.13;6.03;;;12.70;99.90;;;;;;5058173;28;20096;-77
2023/05/14 02:23:48;;;;;;;20.10;6.80;;;;;;;;;;5058204;28;20017;-77
2023/05/14 02:26:13;;;;;;;12.43;5.68;;;11.10;99.90;;;;;;5058279;28;20048;-77
2023/05/14 02:28:39;;;;;;;15.68;7.03;;;11.10;99.90;;;;;;5059043;28;20464;-77
2023/05/14 02:31:05;;;;;;;13.07;7.30;;;11.10;99.90;;;;;;5059133;28;20052;-78
2023/05/14 02:33:30;;;;;;;11.68;6.47;;;11.10;99.90;;;;;;5058873;28;20025;-77
2023/05/14 02:35:56;;;;;;;12.73;6.63;;;11.10;99.90;;;;;;5058658;28;20029;-78
2023/05/14 02:38:22;;;;;;;19.10;7.45;;;11.10;99.90;;;;;;5040478;28;20361;-77
2023/05/14 02:40:47;;;;;;;13.25;6.63;;;11.10;99.90;;;;;;5058117;28;20029;-77
2023/05/14 02:43:13;;;;;;;11.45;6.57;;;11.10;99.90;;;;;;5040114;28;20032;-77
2023/05/14 02:45:38;;;;;;;14.68;6.35;;;11.10;99.90;;;;;;5057616;28;20039;-77
2023/05/14 02:48:04;;;;;;;17.63;7.45;;;11.00;99.90;;;;;;5039316;28;20123;-78
2023/05/14 02:50:30;;;;;;;12.27;6.15;;;11.00;99.90;;;;;;5057940;28;20024;-77
2023/05/14 02:52:55;;;;;;;14.55;6.88;;;10.90;99.90;;;;;;5057852;28;20500;-77
2023/05/14 02:55:21;;;;;;;17.13;7.10;;;11.90;99.90;;;;;;5057279;28;20028;-77
2023/05/14 02:57:47;;;;;;;21.40;6.60;;;10.80;99.90;;;;;;5040223;28;20013;-77
2023/05/14 03:00:13;;;;;;;17.30;7.15;;;10.80;99.90;;;;;;5057752;28;20021;-78
2023/05/14 03:02:38;;;;;;;20.38;6.97;;;10.80;99.90;;;;;;5057814;28;20071;-77
2023/05/14 03:05:04;;;;;;;11.13;6.07;;;10.80;99.90;;;;;;5058127;28;20446;-77
2023/05/14 03:07:29;;;;;;;12.30;5.70;;;10.70;99.90;;;;;;5056361;28;20116;-77
2023/05/14 03:09:55;;;;;;;13.68;6.93;;;10.70;99.90;;;;;;5058157;28;20370;-77
2023/05/14 03:12:21;;;;;;;16.00;6.03;;;10.70;99.90;;;;;;5037384;28;20021;-77
2023/05/14 03:14:46;;;;;;;13.02;6.72;;;10.70;99.90;;;;;;5055160;28;20053;-77
2023/05/14 03:17:12;;;;;;;13.30;6.45;;;10.60;99.90;;;;;;5055760;28;20021;-77
2023/05/14 03:19:37;;;;;;;18.83;7.35;;;10.60;99.90;;;;;;5055044;28;20035;-77
2023/05/14 03:22:03;;;;;;;16.17;7.10;;;10.60;99.90;;;;;;5055174;28;20052;-77
2023/05/14 03:24:29;;;;;;;15.52;7.78;;;10.60;99.90;;;;;;5056333;28;20032;-76
2023/05/14 03:26:54;;;;;;;12.23;6.20;;;10.60;99.90;;;;;;5037095;28;20488;-76
2023/05/14 03:29:20;;;;;;;18.27;6.50;;;10.60;99.90;;;;;;5036972;28;20430;-76
2023/05/14 03:31:45;;;;;;;21.17;8.13;;;10.50;99.90;;;;;;5054831;28;20102;-76
2023/05/14 03:34:11;;;;;;;15.02;7.82;;;10.60;99.90;;;;;;5054751;28;20025;-76
2023/05/14 03:36:38;;;;;;;13.35;7.10;;;10.60;99.90;;;;;;5054786;28;20514;-76
2023/05/14 03:39:05;;;;;;;11.90;6.18;;;10.60;99.90;;;;;;5036818;28;20105;-76
2023/05/14 03:41:31;;;;;;;12.60;6.90;;;10.60;99.90;;;;;;5055106;28;20017;-76
2023/05/14 03:43:57;;;;;;;13.57;6.75;;;10.50;99.90;;;;;;5054540;28;20086;-76
2023/05/14 03:46:22;;;;;;;11.77;6.55;;;10.60;99.90;;;;;;5036755;28;20036;-76
2023/05/14 03:48:48;;;;;;;12.95;6.20;;;10.60;99.90;;;;;;5054490;28;20515;-76
2023/05/14 03:51:13;;;;;;;14.00;6.65;;;10.60;99.90;;;;;;5054503;28;20055;-76
2023/05/14 03:53:39;;;;;;;13.32;6.22;;;10.60;99.90;;;;;;5054367;28;20017;-76
2023/05/14 03:56:05;;;;;;;14.10;7.18;;;10.60;99.90;;;;;;5036427;28;20029;-76
2023/05/14 03:58:30;;;;;;;13.52;7.25;;;10.60;99.90;;;;;;5054299;28;20028;-76
2023/05/14 04:00:56;;;;;;;18.98;7.07;;;10.60;99.90;;;;;;5054254;28;20020;-76
2023/05/14 04:03:21;;;;;;;13.38;6.90;;;10.60;99.90;;;;;;5036281;28;20116;-77
2023/05/14 04:05:47;;;;;;;12.43;6.63;;;10.60;99.90;;;;;;5054770;28;20057;-76
2023/05/14 04:08:12;;;;;;;16.13;6.85;;;10.60;99.90;;;;;;5036187;28;20387;-76
2023/05/14 04:10:38;;;;;;;16.27;7.10;;;10.50;99.90;;;;;;5054637;28;20078;-76
2023/05/14 04:13:04;;;;;;;13.43;7.43;;;10.50;99.90;;;;;;5055079;28;20071;-76
2023/05/14 04:15:29;;;;;;;15.32;6.47;;;10.50;99.90;;;;;;5053913;28;20095;-76
2023/05/14 04:17:55;;;;;;;15.30;7.57;;;10.60;99.90;;;;;;5053590;28;20026;-77
2023/05/14 04:20:20;;;;;;;14.57;6.95;;;10.60;99.90;;;;;;5053871;28;20013;-76
2023/05/14 04:22:46;;;;;;;13.60;6.90;;;10.60;99.90;;;;;;5053918;28;20013;-76
2023/05/14 04:25:11;;;;;;;15.02;6.97;;;10.60;99.90;;;;;;5054331;28;20025;-76
2023/05/14 04:27:37;;;;;;;11.90;6.53;;;10.70;99.90;;;;;;5053728;28;20185;-76
2023/05/14 04:30:03;;;;;;;13.88;7.88;;;10.70;99.90;;;;;;5053706;28;20024;-76
2023/05/14 04:32:29;;;;;;;14.18;6.90;;;10.80;99.90;;;;;;5035788;28;20029;-76
2023/05/14 04:34:54;;;;;;;16.45;6.80;;;10.80;99.90;;;;;;5054168;28;20079;-76
2023/05/14 04:37:20;;;;;;;16.70;7.22;;;10.80;99.90;;;;;;5053763;28;20079;-76
2023/05/14 04:39:46;;;;;;;20.60;7.25;;;10.80;99.90;;;;;;5054155;28;20075;-76
2023/05/14 04:42:11;;;;;;;14.25;7.10;;;10.90;99.90;;;;;;5054055;28;20460;-76
2023/05/14 04:44:37;;;;;;;18.02;6.70;;;10.90;99.90;;;;;;5053549;28;20052;-76
2023/05/14 04:47:03;;;;;;;12.35;6.32;;;11.00;99.90;;;;;;5054071;28;20056;-76
2023/05/14 04:49:29;;;;;;;12.57;6.97;;;11.00;99.90;;;;;;5035524;28;20047;-76
2023/05/14 04:51:55;;;;;;;16.13;7.00;;;11.10;99.90;;;;;;5035589;28;20035;-76
2023/05/14 04:54:20;;;;;;;12.85;6.00;;;11.10;99.90;;;;;;5053416;28;20032;-76
2023/05/14 04:56:46;;;;;;;13.82;6.78;;;11.10;99.90;;;;;;5035452;28;20044;-76
2023/05/14 04:59:12;;;;;;;17.50;7.65;;;11.20;99.90;;;;;;5053118;28;20059;-76
2023/05/14 05:01:37;;;;;;;16.65;7.38;;;11.30;99.90;;;;;;5053793;28;20020;-76
2023/05/14 05:04:03;;;;;;;13.35;6.22;;;11.40;99.90;;;;;;5035441;28;20468;-76
2023/05/14 05:06:29;;;;;;;12.80;5.88;;;11.50;99.90;;;;;;5053232;28;20373;-76
2023/05/14 05:08:55;;;;;;;18.70;7.10;;;12.40;99.90;;;;;;5053111;28;20028;-76
2023/05/14 05:11:20;;;;;;;15.32;6.45;;;11.60;99.90;;;;;;5035263;28;20087;-76
2023/05/14 05:13:46;;;;;;;11.15;6.28;;;11.70;99.90;;;;;;5053234;28;20060;-76
2023/05/14 05:16:11;;;;;;;15.65;6.20;;;11.70;99.90;;;;;;5053557;28;20056;-76
2023/05/14 05:18:37;;;;;;;13.25;5.53;;;11.90;99.90;;;;;;5035235;28;20430;-76
2023/05/14 05:21:03;;;;;;;13.57;6.40;;;11.90;99.90;;;;;;5035387;28;20023;-76
2023/05/14 05:23:29;;;;;;;14.70;6.50;;;12.00;99.90;;;;;;5053058;28;20100;-76
2023/05/14 05:25:54;;;;;;;15.48;7.13;;;12.20;99.90;;;;;;5053085;28;20083;-76
2023/05/14 05:28:20;;;;;;;11.55;5.57;;;12.40;99.90;;;;;;5035127;28;20021;-76
2023/05/14 05:30:45;;;;;;;17.63;5.88;;;12.50;99.90;;;;;;5054757;28;20051;-76
2023/05/14 05:33:11;;;;;;;9.75;5.28;;;13.60;99.90;;;;;;5057276;28;20029;-76
2023/05/14 05:35:37;;;;;;;10.02;5.75;;;12.80;99.90;;;;;;5057017;28;20074;-76
2023/05/14 05:38:02;;;;;;;12.90;5.47;;;13.00;99.90;;;;;;5056865;28;20101;-76
2023/05/14 05:40:28;;;;;;;12.05;5.45;;;13.10;99.90;;;;;;5056905;28;20017;-76
2023/05/14 05:42:54;;;;;;;19.17;6.38;;;13.20;99.90;;;;;;5039016;28;20017;-76
2023/05/14 05:45:19;;;;;;;14.98;5.88;;;13.20;99.90;;;;;;5039039;28;20044;-76
2023/05/14 05:47:45;;;;;;;10.80;5.63;;;13.20;99.90;;;;;;5056747;28;20067;-76
2023/05/14 05:50:11;;;;;;;10.20;5.35;;;13.30;99.90;;;;;;5038964;28;20102;-76
2023/05/14 05:52:36;;;;;;;14.30;6.80;;;13.30;99.90;;;;;;5038860;28;20017;-76
2023/05/14 05:55:02;;;;;;;12.57;6.07;;;13.30;99.90;;;;;;5038664;28;20399;-76
2023/05/14 05:57:28;;;;;;;12.90;6.10;;;13.40;99.90;;;;;;5038726;28;20021;-76
2023/05/14 05:59:53;;;;;;;9.10;5.00;;;13.40;99.90;;;;;;5038828;28;20021;-76
2023/05/14 06:02:19;;;;;;;10.73;4.60;;;13.50;99.90;;;;;;5056683;28;20017;-76
2023/05/14 06:04:45;;;;;;;10.65;4.90;;;13.60;99.90;;;;;;5038618;28;20029;-76
2023/05/14 06:07:11;;;;;;;12.55;4.97;;;13.70;99.90;;;;;;5057071;28;20029;-76
2023/05/14 06:09:36;;;;;;;13.63;5.18;;;13.70;99.90;;;;;;5056352;28;20079;-76
2023/05/14 06:12:02;;;;;;;10.45;5.32;;;14.90;99.90;;;;;;5057000;28;20032;-76
2023/05/14 06:14:28;;;;;;;9.48;5.00;;;13.80;99.90;;;;;;5038342;28;20111;-76
2023/05/14 06:16:53;;;;;;;10.18;4.90;;;13.90;99.90;;;;;;5038346;28;20021;-76
2023/05/14 06:19:19;;;;;;;17.33;5.90;;;13.90;99.90;;;;;;5056403;28;20419;-76
2023/05/14 06:21:44;;;;;;;14.05;5.45;;;14.00;99.90;;;;;;5038425;28;20104;-76
2023/05/14 06:24:10;;;;;;;9.85;4.82;;;14.10;99.90;;;;;;5038502;28;20395;-76
2023/05/14 06:26:35;;;;;;;9.15;5.18;;;14.10;99.90;;;;;;5056087;28;20029;-76
2023/05/14 06:29:01;;;;;;;9.15;4.90;;;14.10;99.90;;;;;;5038133;28;20017;-76
2023/05/14 06:31:26;;;;;;;14.25;5.55;;;14.10;99.90;;;;;;5056131;28;20029;-76
2023/05/14 06:33:52;;;;;;;10.20;5.47;;;14.20;99.90;;;;;;5055965;28;20476;-76
2023/05/14 06:36:18;;;;;;;12.15;5.07;;;14.30;99.90;;;;;;5055883;28;20388;-76
2023/05/14 06:38:43;;;;;;;11.20;4.88;;;14.30;99.90;;;;;;5055854;28;20083;-76
2023/05/14 06:41:09;;;;;;;10.13;5.13;;;14.40;99.90;;;;;;5055626;28;20438;-76
2023/05/14 06:43:34;;;;;;;8.25;4.38;;;14.40;99.90;;;;;;5055800;28;20528;-76
2023/05/14 06:46:00;;;;;;;8.63;4.78;;;14.70;99.90;;;;;;5055869;28;20104;-76
2023/05/14 06:48:28;;;;;;;10.63;4.65;;;14.80;99.90;;;;;;5055673;28;20029;-76
2023/05/14 06:50:54;;;;;;;10.45;5.20;;;14.80;99.90;;;;;;5055685;28;20074;-76
2023/05/14 06:53:20;;;;;;;13.43;5.45;;;14.90;99.90;;;;;;5056136;28;20039;-76
2023/05/14 06:55:48;;;;;;;9.52;4.47;;;14.90;99.90;;;;;;5037513;28;20021;-76
2023/05/14 06:58:14;;;;;;;11.43;5.05;;;14.90;99.90;;;;;;5037524;28;20068;-76
2023/05/14 07:00:39;;;;;;;16.48;5.43;;;15.00;99.90;;;;;;5037662;28;20430;-75
2023/05/14 07:03:05;;;;;;;9.27;5.18;;;15.00;99.90;;;;;;5055532;28;20025;-76
2023/05/14 07:05:31;;;;;;;11.98;4.68;;;15.20;99.90;;;;;;5055997;28;20032;-76
2023/05/14 07:07:56;;;;;;;8.52;4.38;;;15.20;99.90;;;;;;5055341;28;20392;-76
2023/05/14 07:10:22;;;;;;;11.30;4.95;;;15.30;99.90;;;;;;5055238;28;20037;-75
2023/05/14 07:12:48;;;;;;;10.48;4.10;;;15.30;99.90;;;;;;5037457;28;20064;-76
2023/05/14 07:15:14;;;;;;;8.85;4.65;;;15.50;99.90;;;;;;5055328;28;20493;-76
2023/05/14 07:17:40;;;;;;;11.20;4.97;;;15.70;99.90;;;;;;5055072;28;20064;-76
2023/05/14 07:20:06;;;;;;;10.77;4.07;;;15.80;99.90;;;;;;5055338;28;20428;-76
2023/05/14 07:22:31;;;;;;;9.00;4.32;;;16.00;99.90;;;;;;5055236;28;20029;-76
2023/05/14 07:24:57;;;;;;;14.05;4.97;;;16.20;99.90;;;;;;5055279;28;20361;-76
2023/05/14 07:27:22;;;;;;;7.57;3.97;;;16.40;99.90;;;;;;5054978;28;20420;-76
2023/05/14 07:29:49;;;;;;;10.30;4.85;;;16.30;99.90;;;;;;5055029;28;20029;-76
2023/05/14 07:32:15;;;;;;;8.15;3.75;;;16.50;99.90;;;;;;5055117;28;20414;-76
2023/05/14 07:34:40;;;;;;;6.35;4.13;;;16.60;99.90;;;;;;5055451;28;20078;-76
2023/05/14 07:37:06;;;;;;;8.93;3.30;;;16.60;99.90;;;;;;5054919;28;20031;-76
2023/05/14 07:39:31;;;;;;;6.82;3.60;;;16.50;99.90;;;;;;5054925;28;20067;-76
2023/05/14 07:41:57;;;;;;;10.00;3.72;;;16.40;99.90;;;;;;5054845;28;20032;-76
2023/05/14 07:44:22;;;;;;;7.28;3.30;;;16.70;99.90;;;;;;5054679;28;20078;-76
2023/05/14 07:46:48;;;;;;;10.23;3.58;;;16.20;99.90;;;;;;5054622;28;20407;-76
2023/05/14 07:49:13;;;;;;;10.45;3.78;;;16.20;99.90;;;;;;5054541;28;20024;-76
2023/05/14 07:51:39;;;;;;;8.25;3.40;;;17.20;99.90;;;;;;5054616;28;20056;-76
2023/05/14 07:54:05;;;;;;;7.53;2.83;;;16.20;99.90;;;;;;5054083;28;20520;-76
2023/05/14 07:56:30;;;;;;;9.05;3.17;;;16.40;99.90;;;;;;5054656;28;20052;-76
2023/05/14 07:58:56;;;;;;;5.28;2.70;;;16.50;99.90;;;;;;5054932;28;20403;-76
2023/05/14 08:01:22;;;;;;;8.23;3.65;;;16.60;99.90;;;;;;5054587;28;20013;-76
2023/05/14 08:03:47;;;;;;;3.67;2.78;;;16.70;99.90;;;;;;5054456;28;20023;-76
2023/05/14 08:06:13;;;;;;;5.93;2.45;;;16.80;99.90;;;;;;5054400;28;20029;-76
2023/05/14 08:08:39;;;;;;;3.53;2.33;;;16.80;99.90;;;;;;5054292;28;20028;-75
2023/05/14 08:11:05;;;;;;;4.57;1.98;;;17.20;99.90;;;;;;5036484;28;20033;-76
2023/05/14 08:13:31;;;;;;;5.78;1.60;;;17.30;99.90;;;;;;5036271;28;20021;-76
2023/05/14 08:15:56;;;;;;;7.72;1.75;;;17.40;99.90;;;;;;5054688;28;20029;-74
2023/05/14 08:18:22;;;;;;;6.75;1.40;;;17.60;99.90;;;;;;5054358;28;20013;-75
2023/05/14 08:20:47;;;;;;;4.13;1.35;;;18.00;99.90;;;;;;5054365;28;20033;-75
2023/05/14 08:23:13;;;;;;;10.93;1.88;;;17.80;99.90;;;;;;5054131;28;20017;-75
2023/05/14 08:25:39;;;;;;;5.40;1.70;;;18.90;99.90;;;;;;5054521;28;20029;-75
2023/05/14 08:28:04;;;;;;;5.70;1.17;;;17.60;99.90;;;;;;5036310;28;20500;-75
2023/05/14 08:30:30;;;;;;;4.85;1.25;;;17.80;99.90;;;;;;5036080;28;20029;-75
2023/05/14 08:32:56;;;;;;;3.80;0.90;;;17.80;99.90;;;;;;5054086;28;20472;-75
2023/05/14 08:35:22;;;;;;;5.00;1.42;;;17.80;99.90;;;;;;5053860;28;20053;-75
2023/05/14 08:37:49;;;;;;;6.43;1.27;;;17.90;99.90;;;;;;5054003;28;20427;-75
2023/05/14 08:40:14;;;;;;;5.45;1.33;;;18.00;99.90;;;;;;5054460;28;20029;-75
2023/05/14 08:42:41;;;;;;;7.43;1.33;;;18.80;99.90;;;;;;5053833;28;20021;-75
2023/05/14 08:45:13;;;;;;;5.22;1.35;;;18.30;99.90;;;;;;5055341;28;20029;-78
2023/05/14 08:47:39;;;;;;;13.90;1.35;;;18.60;99.90;;;;;;5055947;28;20080;-78
2023/05/14 08:50:07;;;;;;;5.45;1.73;;;18.60;99.90;;;;;;5055963;28;20048;-78
2023/05/14 08:52:33;;;;;;;4.75;1.17;;;18.80;99.90;;;;;;5055844;28;20470;-78
2023/05/14 08:55:01;;;;;;;4.32;1.73;;;18.80;99.90;;;;;;5055180;28;20028;-78
2023/05/14 08:57:28;;;;;;;3.67;1.25;;;18.50;99.90;;;;;;5037705;28;20400;-75
2023/05/14 08:59:54;;;;;;;5.85;1.48;;;19.10;99.90;;;;;;5053995;28;20017;-75
2023/05/14 09:02:23;;;;;;;5.07;1.05;;;18.30;99.90;;;;;;5053547;28;20032;-75
2023/05/14 09:04:55;;;;;;;8.07;1.38;;;18.60;99.90;;;;;;5052594;28;20029;-75
2023/05/14 09:07:21;;;;;;;3.42;0.80;;;;;;;;;;5053384;28;20025;-75
2023/05/14 09:09:47;;;;;;;8.13;1.40;;;;;;;;;;5053344;28;20029;-75
2023/05/14 09:12:13;;;;;;;3.95;0.93;;;19.10;99.90;;;;;;5053470;28;20427;-75
2023/05/14 09:14:38;;;;;;;3.45;0.98;;;19.20;99.90;;;;;;5053180;28;20060;-75
2023/05/14 09:17:04;;;;;;;7.93;0.95;;;19.40;99.90;;;;;;5036049;28;20557;-75
2023/05/14 09:19:30;;;;;;;4.35;1.13;;;19.50;99.90;;;;;;5053220;28;20476;-75
2023/05/14 09:21:59;;;;;;;4.80;1.40;;;19.50;99.90;;;;;;5035453;28;20025;-75
2023/05/14 09:24:26;;;;;;;;;;;19.50;99.90;;;;;;5035787;28;20079;-75
2023/05/14 09:26:53;;;;;;;2.10;1.30;;;19.50;99.90;;;;;;5035770;28;19905;-75
2023/05/14 09:29:19;;;;;;;8.25;1.33;;;19.60;99.90;;;;;;5035447;28;20511;-75
2023/05/14 09:31:45;;;;;;;4.80;0.85;;;19.50;99.90;;;;;;5036269;28;20024;-75
2023/05/14 09:34:11;;;;;;;3.70;0.80;;;19.70;99.90;;;;;;5053169;28;20025;-75
2023/05/14 09:36:37;;;;;;;4.35;0.80;;;19.70;99.90;;;;;;5053299;28;20013;-75
2023/05/14 09:39:03;;;;;;;2.47;0.80;;;19.90;99.90;;;;;;5035144;28;20045;-75
2023/05/14 09:41:29;;;;;;;4.75;1.08;;;19.90;99.90;;;;;;5034955;28;20021;-75
2023/05/14 09:43:56;;;;;;;3.80;0.80;;;19.90;99.90;;;;;;5052974;28;20044;-75
2023/05/14 09:46:22;;;;;;;3.10;1.35;;;19.90;99.90;;;;;;5052899;28;20025;-75
2023/05/14 09:48:48;;;;;;;3.85;1.23;;;19.80;99.90;;;;;;5053530;28;20045;-77
2023/05/14 09:51:16;;;;;;;6.78;0.82;;;20.00;99.90;;;;;;5053058;28;20029;-75
2023/05/14 09:53:46;;;;;;;5.93;0.60;;;21.00;99.90;;;;;;5053753;28;20328;-75
2023/05/14 09:56:12;;;;;;;6.25;0.65;;;20.10;99.90;;;;;;5034988;28;20085;-75
2023/05/14 09:58:37;;;;;;;3.78;0.93;;;20.20;99.90;;;;;;5053643;28;20059;-75
2023/05/14 10:01:04;;;;;;;5.88;1.02;;;21.00;99.90;;;;;;5035270;28;20024;-75
2023/05/14 10:03:31;;;;;;;1.65;0.57;;;20.30;99.90;;;;;;5053457;28;20024;-75
2023/05/14 10:06:05;;;;;;;4.30;1.23;;;20.50;99.90;;;;;;5052919;28;20025;-75
2023/05/14 10:08:34;;;;;;;9.55;0.80;;;20.60;99.90;;;;;;5054006;28;20033;-75
2023/05/14 10:11:07;;;;;;;5.78;1.02;;;20.60;99.90;;;;;;5035154;28;20079;-75
2023/05/14 10:13:38;;;;;;;3.78;0.50;;;20.60;99.90;;;;;;5052934;28;20025;-75
2023/05/14 10:16:04;;;;;;;2.85;1.38;;;20.70;99.90;;;;;;5035456;28;20022;-75
2023/05/14 10:18:33;;;;;;;3.00;0.55;;;20.70;99.90;;;;;;5057319;28;20028;-75
2023/05/14 10:21:07;;;;;;;3.13;0.82;;;20.80;99.90;;;;;;5038772;28;20116;-75
2023/05/14 10:23:36;;;;;;;4.80;0.70;;;21.10;99.90;;;;;;5056745;28;20028;-75
2023/05/14 10:26:03;;;;;;;2.88;0.98;;;21.40;99.90;;;;;;5056519;28;20507;-75
2023/05/14 10:28:29;;;;;;;10.90;1.17;;;21.60;99.90;;;;;;5056732;28;20048;-75
2023/05/14 10:30:55;;;;;;;3.92;0.80;;;21.70;99.90;;;;;;5057173;28;20032;-75
2023/05/14 10:33:20;;;;;;;8.52;1.92;;;21.70;99.90;;;;;;5057766;28;20029;-75
2023/05/14 10:36:06;;;;;;;7.05;0.90;;;21.80;99.90;;;;;;5059369;28;20081;-74
2023/05/14 10:38:36;;;;;;;7.60;1.25;;;21.70;99.90;;;;;;5057518;28;20082;-75
2023/05/14 10:41:04;;;;;;;5.07;0.80;;;21.70;99.90;;;;;;5056779;28;20017;-74
2023/05/14 10:43:34;;;;;;;5.18;0.70;;;21.80;99.90;;;;;;5056082;28;20017;-74
2023/05/14 10:46:00;;;;;;;3.15;0.60;;;21.90;99.90;;;;;;5055870;28;20392;-74
2023/05/14 10:48:26;;;;;;;4.97;1.90;;;22.20;99.90;;;;;;5056078;28;20021;-75
2023/05/14 10:50:52;;;;;;;2.88;1.15;;;22.20;99.90;;;;;;5056007;28;20040;-75
2023/05/14 10:53:18;;;;;;;3.20;0.85;;;22.50;99.90;;;;;;5038059;28;20385;-75
2023/05/14 10:55:44;;;;;;;7.28;0.95;;;22.80;99.90;;;;;;5056773;28;20032;-74
2023/05/14 10:58:11;;;;;;;5.05;1.15;;;22.90;99.90;;;;;;5055854;28;20028;-74
2023/05/14 11:00:37;;;;;;;6.57;1.13;;;22.80;99.90;;;;;;5055852;28;20095;-74
2023/05/14 11:03:05;;;;;;;3.03;1.13;;;22.90;99.90;;;;;;5055873;28;20418;-75
2023/05/14 11:05:31;;;;;;;7.93;1.02;;;23.10;99.90;;;;;;5055946;28;20025;-74
2023/05/14 11:07:57;;;;;;;3.65;0.60;;;23.20;99.90;;;;;;5037872;28;20024;-75
2023/05/14 11:10:28;;;;;;;4.85;0.57;;;23.30;99.90;;;;;;5056324;28;20376;-75
2023/05/14 11:12:56;;;;;;;3.60;1.15;;;23.40;99.90;;;;;;5037807;28;20025;-74
2023/05/14 11:15:23;;;;;;;3.53;1.15;;;23.40;99.90;;;;;;5055707;28;20108;-74
2023/05/14 11:17:50;;;;;;;4.40;0.60;;;23.50;99.90;;;;;;5037781;28;20021;-74
2023/05/14 11:20:16;;;;;;;8.88;1.33;;;23.40;99.90;;;;;;5037808;28;20044;-75
2023/05/14 11:22:43;;;;;;;3.70;0.52;;;23.40;99.90;;;;;;5056290;28;20483;-75
2023/05/14 11:25:13;;;;;;;7.88;1.13;;;23.50;99.90;;;;;;5037750;28;20025;-75
2023/05/14 11:27:39;;;;;;;13.82;0.85;;;23.30;99.90;;;;;;5054240;28;20025;-75
2023/05/14 11:30:18;;;;;;;1.95;0.60;;;23.30;99.90;;;;;;5055655;28;20039;-75
2023/05/14 11:32:48;;;;;;;4.95;0.80;;;23.30;99.90;;;;;;5055182;28;20056;-75
2023/05/14 11:35:15;;;;;;;4.68;1.05;;;23.30;99.90;;;;;;5055012;28;20455;-75
2023/05/14 11:37:41;;;;;;;5.72;1.02;;;23.30;99.90;;;;;;5055212;28;20064;-75
2023/05/14 11:40:17;;;;;;;4.25;1.02;;;23.30;99.90;;;;;;5055275;28;20025;-77
2023/05/14 11:42:43;;;;;;;4.78;0.90;;;23.30;99.90;;;;;;5055363;28;20070;-77
2023/05/14 11:45:13;;;;;;;4.20;1.25;;;23.10;99.90;;;;;;5055787;28;20036;-77
2023/05/14 11:47:40;;;;;;;5.88;1.17;;;23.10;99.90;;;;;;5055673;28;20024;-77
2023/05/14 11:50:06;;;;;;;6.10;0.93;;;23.10;99.90;;;;;;5055483;28;20096;-75
2023/05/14 11:52:40;;;;;;;5.78;0.80;;;23.20;99.90;;;;;;5055793;28;20029;-77
2023/05/14 11:55:09;;;;;;;6.65;1.25;;;23.30;99.90;;;;;;5056000;28;20036;-78
2023/05/14 11:57:35;;;;;;;4.82;0.63;;;23.70;99.90;;;;;;5055371;28;20053;-77
2023/05/14 12:00:00;;;;;;;6.57;1.13;;;23.70;99.90;;;;;;5055447;28;20067;-75
2023/05/14 12:02:28;;;;;;;4.13;0.75;;;24.00;99.90;;;;;;5054679;28;20044;-75
2023/05/14 12:04:53;;;;;;;3.95;0.60;;;24.10;99.90;;;;;;5054680;28;20031;-75
2023/05/14 12:07:19;;;;;;;6.57;0.75;;;24.40;99.90;;;;;;5036775;28;20033;-75
2023/05/14 12:09:48;;;;;;;2.17;0.63;;;24.30;99.90;;;;;;5054621;28;20063;-75
2023/05/14 12:12:18;;;;;;;7.40;1.50;;;24.70;99.90;;;;;;5054371;28;20048;-74
2023/05/14 12:14:44;;;;;;;3.60;0.63;;;24.60;99.90;;;;;;5054384;28;20404;-75
2023/05/14 12:17:16;;;;;;;7.45;1.30;;;24.50;99.90;;;;;;5054347;28;20017;-75
2023/05/14 12:19:42;;;;;;;8.02;1.13;;;24.70;99.90;;;;;;5054213;28;20029;-74
2023/05/14 12:22:09;;;;;;;3.85;1.02;;;;;;;;;;5054169;28;20427;-75
2023/05/14 12:24:35;;;;;;;3.83;0.43;;;25.00;99.90;;;;;;5036194;28;20021;-75
2023/05/14 12:27:01;;;;;;;4.32;0.82;;;25.00;99.90;;;;;;5054055;28;20021;-74
2023/05/14 12:29:27;;;;;;;4.20;0.60;;;25.10;99.90;;;;;;5036203;28;20484;-75
2023/05/14 12:31:56;;;;;;;5.00;0.60;;;25.10;99.90;;;;;;5054169;28;20028;-75
2023/05/14 12:34:22;;;;;;;4.68;1.17;;;25.00;99.90;;;;;;5054732;28;20025;-75
2023/05/14 12:36:47;;;;;;;5.25;0.70;;;25.10;99.90;;;;;;5036097;28;20029;-75
2023/05/14 12:39:13;;;;;;;5.25;0.70;;;25.00;99.90;;;;;;5035928;28;20017;-75